sensor_id;sensor_type;location;lat;lon;timestamp;P1;durP1;ratioP1;P2;durP2;ratioP2
6356;SDS011;3211;53.452;-2.264;2023-06-19T00:00:20;25.00;;;21.80;;
6356;SDS011;3211;53.452;-2.264;2023-06-19T00:03:02;25.20;;;22.50;;
6356;SDS011;3211;53.452;-2.264;2023-06-19T00:05:44;25.00;;;22.17;;
6356;SDS011;3211;53.452;-2.264;2023-06-19T00:08:26;25.53;;;22.93;;
6356;SDS011;3211;53.452;-2.264;2023-06-19T00:11:09;26.00;;;23.40;;
6356;SDS011;3211;53.452;-2.264;2023-06-19T00:13:52;24.87;;;22.27;;
6356;SDS011;3211;53.452;-2.264;2023-06-19T00:16:34;25.00;;;22.40;;
6356;SDS011;3211;53.452;-2.264;2023-06-19T00:19:16;29.00;;;24.50;;
6356;SDS011;3211;53.452;-2.264;2023-06-19T00:21:58;26.77;;;23.53;;
6356;SDS011;3211;53.452;-2.264;2023-06-19T00:24:40;29.57;;;23.50;;
6356;SDS011;3211;53.452;-2.264;2023-06-19T00:27:24;27.90;;;24.90;;
6356;SDS011;3211;53.452;-2.264;2023-06-19T00:30:06;28.23;;;25.20;;
6356;SDS011;3211;53.452;-2.264;2023-06-19T00:32:49;30.00;;;23.80;;
6356;SDS011;3211;53.452;-2.264;2023-06-19T00:35:33;24.70;;;21.80;;
6356;SDS011;3211;53.452;-2.264;2023-06-19T00:38:15;27.03;;;24.13;;
6356;SDS011;3211;53.452;-2.264;2023-06-19T00:40:57;25.10;;;22.40;;
6356;SDS011;3211;53.452;-2.264;2023-06-19T00:43:40;25.40;;;22.80;;
6356;SDS011;3211;53.452;-2.264;2023-06-19T00:46:22;22.93;;;20.50;;
6356;SDS011;3211;53.452;-2.264;2023-06-19T00:49:04;23.93;;;21.40;;
6356;SDS011;3211;53.452;-2.264;2023-06-19T00:51:46;27.67;;;22.13;;
6356;SDS011;3211;53.452;-2.264;2023-06-19T00:54:29;24.53;;;21.93;;
6356;SDS011;3211;53.452;-2.264;2023-06-19T00:57:12;22.33;;;19.80;;
6356;SDS011;3211;53.452;-2.264;2023-06-19T00:59:55;21.90;;;19.70;;
6356;SDS011;3211;53.452;-2.264;2023-06-19T01:02:39;20.80;;;18.50;;
6356;SDS011;3211;53.452;-2.264;2023-06-19T01:05:21;21.10;;;18.97;;
6356;SDS011;3211;53.452;-2.264;2023-06-19T01:08:04;19.93;;;17.93;;
6356;SDS011;3211;53.452;-2.264;2023-06-19T01:10:54;20.40;;;18.20;;
6356;SDS011;3211;53.452;-2.264;2023-06-19T01:13:40;21.27;;;19.07;;
6356;SDS011;3211;53.452;-2.264;2023-06-19T01:16:27;22.30;;;18.40;;
6356;SDS011;3211;53.452;-2.264;2023-06-19T01:19:11;19.33;;;17.30;;
6356;SDS011;3211;53.452;-2.264;2023-06-19T01:22:01;20.63;;;18.30;;
6356;SDS011;3211;53.452;-2.264;2023-06-19T01:24:45;21.37;;;19.00;;
6356;SDS011;3211;53.452;-2.264;2023-06-19T01:27:27;21.60;;;19.33;;
6356;SDS011;3211;53.452;-2.264;2023-06-19T01:30:11;20.20;;;18.20;;
6356;SDS011;3211;53.452;-2.264;2023-06-19T01:32:56;19.10;;;16.13;;
6356;SDS011;3211;53.452;-2.264;2023-06-19T01:35:42;20.80;;;17.00;;
6356;SDS011;3211;53.452;-2.264;2023-06-19T01:38:26;18.60;;;16.77;;
6356;SDS011;3211;53.452;-2.264;2023-06-19T01:41:10;16.90;;;15.20;;
6356;SDS011;3211;53.452;-2.264;2023-06-19T01:43:52;16.80;;;15.17;;
6356;SDS011;3211;53.452;-2.264;2023-06-19T01:46:35;18.40;;;16.50;;
6356;SDS011;3211;53.452;-2.264;2023-06-19T01:49:18;18.27;;;15.93;;
6356;SDS011;3211;53.452;-2.264;2023-06-19T01:52:00;19.30;;;17.10;;
6356;SDS011;3211;53.452;-2.264;2023-06-19T01:54:43;19.10;;;15.97;;
6356;SDS011;3211;53.452;-2.264;2023-06-19T01:57:25;17.50;;;15.70;;
6356;SDS011;3211;53.452;-2.264;2023-06-19T02:00:07;17.60;;;15.80;;
6356;SDS011;3211;53.452;-2.264;2023-06-19T02:02:50;18.63;;;15.03;;
6356;SDS011;3211;53.452;-2.264;2023-06-19T02:05:32;16.90;;;15.13;;
6356;SDS011;3211;53.452;-2.264;2023-06-19T02:08:19;19.33;;;15.43;;
6356;SDS011;3211;53.452;-2.264;2023-06-19T02:11:02;17.90;;;16.00;;
6356;SDS011;3211;53.452;-2.264;2023-06-19T02:13:44;19.97;;;15.57;;
6356;SDS011;3211;53.452;-2.264;2023-06-19T02:16:26;17.77;;;15.97;;
6356;SDS011;3211;53.452;-2.264;2023-06-19T02:19:08;20.40;;;15.97;;
6356;SDS011;3211;53.452;-2.264;2023-06-19T02:21:51;17.10;;;15.30;;
6356;SDS011;3211;53.452;-2.264;2023-06-19T02:24:33;21.37;;;17.10;;
6356;SDS011;3211;53.452;-2.264;2023-06-19T02:27:16;18.20;;;16.17;;
6356;SDS011;3211;53.452;-2.264;2023-06-19T02:29:58;18.03;;;16.20;;
6356;SDS011;3211;53.452;-2.264;2023-06-19T02:32:40;20.40;;;16.90;;
6356;SDS011;3211;53.452;-2.264;2023-06-19T02:35:22;20.47;;;16.03;;
6356;SDS011;3211;53.452;-2.264;2023-06-19T02:38:04;22.10;;;15.63;;
6356;SDS011;3211;53.452;-2.264;2023-06-19T02:40:46;20.03;;;16.67;;
6356;SDS011;3211;53.452;-2.264;2023-06-19T02:43:29;18.97;;;15.97;;
6356;SDS011;3211;53.452;-2.264;2023-06-19T02:46:11;17.23;;;15.53;;
6356;SDS011;3211;53.452;-2.264;2023-06-19T02:48:53;16.80;;;14.50;;
6356;SDS011;3211;53.452;-2.264;2023-06-19T02:51:35;17.80;;;15.90;;
6356;SDS011;3211;53.452;-2.264;2023-06-19T02:54:17;16.50;;;14.77;;
6356;SDS011;3211;53.452;-2.264;2023-06-19T02:56:59;15.93;;;14.40;;
6356;SDS011;3211;53.452;-2.264;2023-06-19T02:59:42;15.60;;;14.00;;
6356;SDS011;3211;53.452;-2.264;2023-06-19T03:02:25;17.93;;;15.23;;
6356;SDS011;3211;53.452;-2.264;2023-06-19T03:05:07;15.20;;;13.43;;
6356;SDS011;3211;53.452;-2.264;2023-06-19T03:07:50;14.43;;;13.03;;
6356;SDS011;3211;53.452;-2.264;2023-06-19T03:10:32;15.00;;;13.50;;
6356;SDS011;3211;53.452;-2.264;2023-06-19T03:13:14;17.20;;;12.67;;
6356;SDS011;3211;53.452;-2.264;2023-06-19T03:15:57;15.03;;;13.63;;
6356;SDS011;3211;53.452;-2.264;2023-06-19T03:18:39;14.83;;;13.20;;
6356;SDS011;3211;53.452;-2.264;2023-06-19T03:21:21;14.30;;;12.80;;
6356;SDS011;3211;53.452;-2.264;2023-06-19T03:24:03;14.60;;;13.10;;
6356;SDS011;3211;53.452;-2.264;2023-06-19T03:26:45;15.27;;;12.93;;
6356;SDS011;3211;53.452;-2.264;2023-06-19T03:29:27;16.37;;;13.33;;
6356;SDS011;3211;53.452;-2.264;2023-06-19T03:32:11;13.70;;;11.57;;
6356;SDS011;3211;53.452;-2.264;2023-06-19T03:34:53;15.60;;;13.40;;
6356;SDS011;3211;53.452;-2.264;2023-06-19T03:37:35;17.43;;;13.50;;
6356;SDS011;3211;53.452;-2.264;2023-06-19T03:40:17;15.20;;;12.80;;
6356;SDS011;3211;53.452;-2.264;2023-06-19T03:42:59;14.10;;;12.60;;
6356;SDS011;3211;53.452;-2.264;2023-06-19T03:45:41;13.83;;;12.30;;
6356;SDS011;3211;53.452;-2.264;2023-06-19T03:48:24;14.60;;;13.10;;
6356;SDS011;3211;53.452;-2.264;2023-06-19T03:51:06;14.90;;;12.97;;
6356;SDS011;3211;53.452;-2.264;2023-06-19T03:53:48;15.13;;;13.23;;
6356;SDS011;3211;53.452;-2.264;2023-06-19T03:56:30;15.90;;;13.03;;
6356;SDS011;3211;53.452;-2.264;2023-06-19T03:59:12;15.70;;;13.67;;
6356;SDS011;3211;53.452;-2.264;2023-06-19T04:01:54;16.87;;;14.20;;
6356;SDS011;3211;53.452;-2.264;2023-06-19T04:04:37;21.40;;;13.40;;
6356;SDS011;3211;53.452;-2.264;2023-06-19T04:07:19;14.83;;;13.30;;
6356;SDS011;3211;53.452;-2.264;2023-06-19T04:10:01;16.73;;;14.33;;
6356;SDS011;3211;53.452;-2.264;2023-06-19T04:12:44;17.03;;;14.00;;
6356;SDS011;3211;53.452;-2.264;2023-06-19T04:15:26;15.57;;;14.07;;
6356;SDS011;3211;53.452;-2.264;2023-06-19T04:18:08;17.23;;;15.30;;
6356;SDS011;3211;53.452;-2.264;2023-06-19T04:20:51;16.90;;;15.13;;
6356;SDS011;3211;53.452;-2.264;2023-06-19T04:23:33;16.47;;;14.80;;
6356;SDS011;3211;53.452;-2.264;2023-06-19T04:26:15;18.40;;;15.80;;
6356;SDS011;3211;53.452;-2.264;2023-06-19T04:28:58;16.03;;;14.33;;
6356;SDS011;3211;53.452;-2.264;2023-06-19T04:31:41;18.00;;;16.10;;
6356;SDS011;3211;53.452;-2.264;2023-06-19T04:34:23;18.40;;;16.50;;
6356;SDS011;3211;53.452;-2.264;2023-06-19T04:37:06;16.83;;;15.10;;
6356;SDS011;3211;53.452;-2.264;2023-06-19T04:39:48;19.37;;;15.80;;
6356;SDS011;3211;53.452;-2.264;2023-06-19T04:42:30;19.37;;;15.73;;
6356;SDS011;3211;53.452;-2.264;2023-06-19T04:45:13;20.50;;;16.10;;
6356;SDS011;3211;53.452;-2.264;2023-06-19T04:47:55;24.83;;;17.10;;
6356;SDS011;3211;53.452;-2.264;2023-06-19T04:50:36;19.37;;;15.50;;
6356;SDS011;3211;53.452;-2.264;2023-06-19T04:53:20;16.73;;;14.93;;
6356;SDS011;3211;53.452;-2.264;2023-06-19T04:56:02;19.90;;;16.00;;
6356;SDS011;3211;53.452;-2.264;2023-06-19T04:58:44;16.73;;;15.03;;
6356;SDS011;3211;53.452;-2.264;2023-06-19T05:01:27;21.50;;;16.20;;
6356;SDS011;3211;53.452;-2.264;2023-06-19T05:04:10;16.97;;;15.30;;
6356;SDS011;3211;53.452;-2.264;2023-06-19T05:06:52;17.03;;;15.13;;
6356;SDS011;3211;53.452;-2.264;2023-06-19T05:09:35;16.13;;;14.43;;
6356;SDS011;3211;53.452;-2.264;2023-06-19T05:12:17;14.37;;;12.93;;
6356;SDS011;3211;53.452;-2.264;2023-06-19T05:14:59;14.87;;;13.27;;
6356;SDS011;3211;53.452;-2.264;2023-06-19T05:17:41;17.47;;;13.20;;
6356;SDS011;3211;53.452;-2.264;2023-06-19T05:20:26;18.20;;;12.90;;
6356;SDS011;3211;53.452;-2.264;2023-06-19T05:23:08;16.83;;;13.00;;
6356;SDS011;3211;53.452;-2.264;2023-06-19T05:25:51;14.83;;;12.20;;
6356;SDS011;3211;53.452;-2.264;2023-06-19T05:28:33;14.73;;;13.23;;
6356;SDS011;3211;53.452;-2.264;2023-06-19T05:31:15;13.60;;;11.93;;
6356;SDS011;3211;53.452;-2.264;2023-06-19T05:33:58;12.90;;;11.60;;
6356;SDS011;3211;53.452;-2.264;2023-06-19T05:36:40;13.30;;;11.93;;
6356;SDS011;3211;53.452;-2.264;2023-06-19T05:39:27;13.87;;;11.47;;
6356;SDS011;3211;53.452;-2.264;2023-06-19T05:42:10;14.03;;;11.30;;
6356;SDS011;3211;53.452;-2.264;2023-06-19T05:44:52;14.50;;;11.60;;
6356;SDS011;3211;53.452;-2.264;2023-06-19T05:47:34;15.87;;;11.37;;
6356;SDS011;3211;53.452;-2.264;2023-06-19T05:50:16;13.70;;;10.93;;
6356;SDS011;3211;53.452;-2.264;2023-06-19T05:52:58;15.20;;;11.07;;
6356;SDS011;3211;53.452;-2.264;2023-06-19T05:55:40;13.77;;;11.10;;
6356;SDS011;3211;53.452;-2.264;2023-06-19T05:58:23;13.57;;;10.77;;
6356;SDS011;3211;53.452;-2.264;2023-06-19T06:01:05;12.73;;;10.67;;
6356;SDS011;3211;53.452;-2.264;2023-06-19T06:03:47;11.57;;;9.93;;
6356;SDS011;3211;53.452;-2.264;2023-06-19T06:06:29;13.53;;;10.93;;
6356;SDS011;3211;53.452;-2.264;2023-06-19T06:09:11;15.00;;;11.40;;
6356;SDS011;3211;53.452;-2.264;2023-06-19T06:11:55;15.57;;;11.30;;
6356;SDS011;3211;53.452;-2.264;2023-06-19T06:14:39;11.43;;;9.03;;
6356;SDS011;3211;53.452;-2.264;2023-06-19T06:17:21;17.30;;;9.60;;
6356;SDS011;3211;53.452;-2.264;2023-06-19T06:20:04;11.70;;;9.80;;
6356;SDS011;3211;53.452;-2.264;2023-06-19T06:22:52;12.90;;;10.50;;
6356;SDS011;3211;53.452;-2.264;2023-06-19T06:25:34;12.60;;;9.00;;
6356;SDS011;3211;53.452;-2.264;2023-06-19T06:28:16;10.63;;;8.90;;
6356;SDS011;3211;53.452;-2.264;2023-06-19T06:31:00;11.43;;;8.77;;
6356;SDS011;3211;53.452;-2.264;2023-06-19T06:33:42;12.30;;;8.80;;
6356;SDS011;3211;53.452;-2.264;2023-06-19T06:36:24;12.60;;;9.40;;
6356;SDS011;3211;53.452;-2.264;2023-06-19T06:39:06;10.60;;;8.80;;
6356;SDS011;3211;53.452;-2.264;2023-06-19T06:41:48;10.30;;;8.13;;
6356;SDS011;3211;53.452;-2.264;2023-06-19T06:44:30;10.30;;;8.87;;
6356;SDS011;3211;53.452;-2.264;2023-06-19T06:47:13;11.13;;;8.80;;
6356;SDS011;3211;53.452;-2.264;2023-06-19T06:49:55;11.53;;;8.13;;
6356;SDS011;3211;53.452;-2.264;2023-06-19T06:52:37;9.67;;;8.10;;
6356;SDS011;3211;53.452;-2.264;2023-06-19T06:55:19;11.63;;;7.90;;
6356;SDS011;3211;53.452;-2.264;2023-06-19T06:58:01;11.03;;;8.93;;
6356;SDS011;3211;53.452;-2.264;2023-06-19T07:00:43;12.00;;;8.73;;
6356;SDS011;3211;53.452;-2.264;2023-06-19T07:03:26;16.83;;;8.80;;
6356;SDS011;3211;53.452;-2.264;2023-06-19T07:06:10;10.30;;;8.63;;
6356;SDS011;3211;53.452;-2.264;2023-06-19T07:08:52;11.53;;;7.93;;
6356;SDS011;3211;53.452;-2.264;2023-06-19T07:11:34;11.60;;;9.20;;
6356;SDS011;3211;53.452;-2.264;2023-06-19T07:14:16;13.07;;;9.17;;
6356;SDS011;3211;53.452;-2.264;2023-06-19T07:17:01;11.40;;;8.60;;
6356;SDS011;3211;53.452;-2.264;2023-06-19T07:19:44;14.60;;;9.43;;
6356;SDS011;3211;53.452;-2.264;2023-06-19T07:22:26;14.97;;;10.43;;
6356;SDS011;3211;53.452;-2.264;2023-06-19T07:25:09;10.83;;;7.80;;
6356;SDS011;3211;53.452;-2.264;2023-06-19T07:27:52;14.20;;;9.07;;
6356;SDS011;3211;53.452;-2.264;2023-06-19T07:30:34;9.90;;;8.20;;
6356;SDS011;3211;53.452;-2.264;2023-06-19T07:33:16;14.77;;;7.60;;
6356;SDS011;3211;53.452;-2.264;2023-06-19T07:35:59;11.53;;;8.10;;
6356;SDS011;3211;53.452;-2.264;2023-06-19T07:38:42;11.30;;;9.30;;
6356;SDS011;3211;53.452;-2.264;2023-06-19T07:41:25;11.33;;;7.50;;
6356;SDS011;3211;53.452;-2.264;2023-06-19T07:44:07;12.20;;;8.47;;
6356;SDS011;3211;53.452;-2.264;2023-06-19T07:46:49;11.57;;;8.47;;
6356;SDS011;3211;53.452;-2.264;2023-06-19T07:49:30;11.77;;;7.67;;
6356;SDS011;3211;53.452;-2.264;2023-06-19T07:52:14;11.30;;;7.33;;
6356;SDS011;3211;53.452;-2.264;2023-06-19T07:54:56;9.87;;;8.23;;
6356;SDS011;3211;53.452;-2.264;2023-06-19T07:57:39;10.23;;;7.27;;
6356;SDS011;3211;53.452;-2.264;2023-06-19T08:00:21;13.50;;;7.43;;
6356;SDS011;3211;53.452;-2.264;2023-06-19T08:03:02;11.80;;;7.67;;
6356;SDS011;3211;53.452;-2.264;2023-06-19T08:05:45;12.40;;;7.50;;
6356;SDS011;3211;53.452;-2.264;2023-06-19T08:08:28;8.23;;;6.90;;
6356;SDS011;3211;53.452;-2.264;2023-06-19T08:11:10;8.97;;;6.57;;
6356;SDS011;3211;53.452;-2.264;2023-06-19T08:13:52;11.20;;;6.60;;
6356;SDS011;3211;53.452;-2.264;2023-06-19T08:16:34;9.30;;;6.40;;
6356;SDS011;3211;53.452;-2.264;2023-06-19T08:19:16;17.70;;;6.80;;
6356;SDS011;3211;53.452;-2.264;2023-06-19T08:21:58;8.77;;;6.97;;
6356;SDS011;3211;53.452;-2.264;2023-06-19T08:24:41;8.00;;;7.03;;
6356;SDS011;3211;53.452;-2.264;2023-06-19T08:27:23;12.03;;;6.50;;
6356;SDS011;3211;53.452;-2.264;2023-06-19T08:30:05;9.73;;;6.00;;
6356;SDS011;3211;53.452;-2.264;2023-06-19T08:32:48;8.10;;;6.13;;
6356;SDS011;3211;53.452;-2.264;2023-06-19T08:35:30;10.27;;;6.13;;
6356;SDS011;3211;53.452;-2.264;2023-06-19T08:38:12;8.97;;;6.00;;
6356;SDS011;3211;53.452;-2.264;2023-06-19T08:40:55;8.10;;;6.50;;
6356;SDS011;3211;53.452;-2.264;2023-06-19T08:43:37;7.27;;;5.93;;
6356;SDS011;3211;53.452;-2.264;2023-06-19T08:46:21;6.23;;;5.60;;
6356;SDS011;3211;53.452;-2.264;2023-06-19T08:49:03;7.87;;;5.43;;
6356;SDS011;3211;53.452;-2.264;2023-06-19T08:51:46;7.57;;;5.30;;
6356;SDS011;3211;53.452;-2.264;2023-06-19T08:54:28;12.63;;;5.60;;
6356;SDS011;3211;53.452;-2.264;2023-06-19T08:57:11;13.10;;;5.40;;
6356;SDS011;3211;53.452;-2.264;2023-06-19T08:59:53;9.10;;;5.40;;
6356;SDS011;3211;53.452;-2.264;2023-06-19T09:02:41;7.77;;;4.70;;
6356;SDS011;3211;53.452;-2.264;2023-06-19T09:05:27;9.80;;;4.70;;
6356;SDS011;3211;53.452;-2.264;2023-06-19T09:08:12;6.67;;;3.87;;
6356;SDS011;3211;53.452;-2.264;2023-06-19T09:10:59;7.53;;;4.20;;
6356;SDS011;3211;53.452;-2.264;2023-06-19T09:13:43;7.03;;;4.20;;
6356;SDS011;3211;53.452;-2.264;2023-06-19T09:16:26;6.23;;;4.07;;
6356;SDS011;3211;53.452;-2.264;2023-06-19T09:19:19;7.23;;;4.30;;
6356;SDS011;3211;53.452;-2.264;2023-06-19T09:22:02;6.50;;;4.20;;
6356;SDS011;3211;53.452;-2.264;2023-06-19T09:24:46;8.80;;;4.13;;
6356;SDS011;3211;53.452;-2.264;2023-06-19T09:27:31;5.90;;;4.10;;
6356;SDS011;3211;53.452;-2.264;2023-06-19T09:30:16;7.70;;;4.67;;
6356;SDS011;3211;53.452;-2.264;2023-06-19T09:33:05;5.70;;;4.20;;
6356;SDS011;3211;53.452;-2.264;2023-06-19T09:35:48;7.67;;;4.10;;
6356;SDS011;3211;53.452;-2.264;2023-06-19T09:38:31;7.27;;;4.40;;
6356;SDS011;3211;53.452;-2.264;2023-06-19T09:41:14;8.83;;;4.27;;
6356;SDS011;3211;53.452;-2.264;2023-06-19T09:43:57;6.43;;;4.50;;
6356;SDS011;3211;53.452;-2.264;2023-06-19T09:46:41;8.83;;;4.17;;
6356;SDS011;3211;53.452;-2.264;2023-06-19T09:49:28;9.63;;;4.40;;
6356;SDS011;3211;53.452;-2.264;2023-06-19T09:52:13;5.50;;;3.53;;
6356;SDS011;3211;53.452;-2.264;2023-06-19T09:54:55;5.93;;;3.90;;
6356;SDS011;3211;53.452;-2.264;2023-06-19T09:57:38;8.80;;;3.80;;
6356;SDS011;3211;53.452;-2.264;2023-06-19T10:00:20;5.60;;;3.80;;
6356;SDS011;3211;53.452;-2.264;2023-06-19T10:03:12;9.00;;;4.60;;
6356;SDS011;3211;53.452;-2.264;2023-06-19T10:05:57;5.53;;;3.87;;
6356;SDS011;3211;53.452;-2.264;2023-06-19T10:08:41;6.37;;;4.07;;
6356;SDS011;3211;53.452;-2.264;2023-06-19T10:11:24;3.57;;;3.23;;
6356;SDS011;3211;53.452;-2.264;2023-06-19T10:14:07;6.90;;;3.80;;
6356;SDS011;3211;53.452;-2.264;2023-06-19T10:16:49;4.00;;;3.50;;
6356;SDS011;3211;53.452;-2.264;2023-06-19T10:19:32;6.27;;;3.80;;
6356;SDS011;3211;53.452;-2.264;2023-06-19T10:22:19;8.93;;;3.77;;
6356;SDS011;3211;53.452;-2.264;2023-06-19T10:25:02;5.50;;;3.60;;
6356;SDS011;3211;53.452;-2.264;2023-06-19T10:27:44;5.80;;;3.97;;
6356;SDS011;3211;53.452;-2.264;2023-06-19T10:30:26;7.10;;;4.10;;
6356;SDS011;3211;53.452;-2.264;2023-06-19T10:33:09;8.43;;;4.10;;
6356;SDS011;3211;53.452;-2.264;2023-06-19T10:35:53;8.40;;;4.13;;
6356;SDS011;3211;53.452;-2.264;2023-06-19T10:38:35;6.47;;;3.73;;
6356;SDS011;3211;53.452;-2.264;2023-06-19T10:41:17;6.90;;;4.17;;
6356;SDS011;3211;53.452;-2.264;2023-06-19T10:44:01;9.33;;;4.33;;
6356;SDS011;3211;53.452;-2.264;2023-06-19T10:46:44;5.13;;;3.60;;
6356;SDS011;3211;53.452;-2.264;2023-06-19T10:49:26;8.10;;;4.00;;
6356;SDS011;3211;53.452;-2.264;2023-06-19T10:52:09;6.53;;;3.93;;
6356;SDS011;3211;53.452;-2.264;2023-06-19T10:54:53;6.13;;;3.43;;
6356;SDS011;3211;53.452;-2.264;2023-06-19T10:57:35;5.30;;;3.03;;
6356;SDS011;3211;53.452;-2.264;2023-06-19T11:00:24;5.23;;;3.53;;
6356;SDS011;3211;53.452;-2.264;2023-06-19T11:03:07;5.27;;;3.30;;
6356;SDS011;3211;53.452;-2.264;2023-06-19T11:05:49;6.93;;;3.50;;
6356;SDS011;3211;53.452;-2.264;2023-06-19T11:08:32;5.63;;;3.77;;
6356;SDS011;3211;53.452;-2.264;2023-06-19T11:11:15;5.67;;;2.90;;
6356;SDS011;3211;53.452;-2.264;2023-06-19T11:13:57;3.70;;;3.10;;
6356;SDS011;3211;53.452;-2.264;2023-06-19T11:16:40;6.20;;;2.97;;
6356;SDS011;3211;53.452;-2.264;2023-06-19T11:19:24;6.73;;;3.17;;
6356;SDS011;3211;53.452;-2.264;2023-06-19T11:22:13;4.60;;;3.00;;
6356;SDS011;3211;53.452;-2.264;2023-06-19T11:25:01;6.53;;;2.87;;
6356;SDS011;3211;53.452;-2.264;2023-06-19T11:27:44;5.80;;;3.10;;
6356;SDS011;3211;53.452;-2.264;2023-06-19T11:30:32;7.07;;;3.00;;
6356;SDS011;3211;53.452;-2.264;2023-06-19T11:33:16;4.23;;;2.43;;
6356;SDS011;3211;53.452;-2.264;2023-06-19T11:36:02;4.77;;;3.63;;
6356;SDS011;3211;53.452;-2.264;2023-06-19T11:38:44;6.53;;;3.37;;
6356;SDS011;3211;53.452;-2.264;2023-06-19T11:41:29;4.57;;;3.47;;
6356;SDS011;3211;53.452;-2.264;2023-06-19T11:44:11;7.47;;;3.40;;
6356;SDS011;3211;53.452;-2.264;2023-06-19T11:46:56;5.13;;;2.60;;
6356;SDS011;3211;53.452;-2.264;2023-06-19T11:49:39;5.50;;;3.20;;
6356;SDS011;3211;53.452;-2.264;2023-06-19T11:52:21;4.53;;;2.83;;
6356;SDS011;3211;53.452;-2.264;2023-06-19T11:55:03;4.90;;;3.03;;
6356;SDS011;3211;53.452;-2.264;2023-06-19T11:57:47;7.00;;;3.20;;
6356;SDS011;3211;53.452;-2.264;2023-06-19T12:00:29;6.00;;;3.63;;
6356;SDS011;3211;53.452;-2.264;2023-06-19T12:03:11;5.17;;;3.20;;
6356;SDS011;3211;53.452;-2.264;2023-06-19T12:05:56;5.93;;;3.40;;
6356;SDS011;3211;53.452;-2.264;2023-06-19T12:08:38;4.67;;;2.87;;
6356;SDS011;3211;53.452;-2.264;2023-06-19T12:11:20;8.63;;;2.77;;
6356;SDS011;3211;53.452;-2.264;2023-06-19T12:14:03;4.57;;;3.63;;
6356;SDS011;3211;53.452;-2.264;2023-06-19T12:16:45;7.20;;;3.83;;
6356;SDS011;3211;53.452;-2.264;2023-06-19T12:19:27;9.80;;;3.27;;
6356;SDS011;3211;53.452;-2.264;2023-06-19T12:22:09;3.77;;;2.67;;
6356;SDS011;3211;53.452;-2.264;2023-06-19T12:24:51;6.03;;;2.90;;
6356;SDS011;3211;53.452;-2.264;2023-06-19T12:27:33;3.23;;;2.60;;
6356;SDS011;3211;53.452;-2.264;2023-06-19T12:30:17;4.23;;;2.93;;
6356;SDS011;3211;53.452;-2.264;2023-06-19T12:32:59;5.00;;;2.93;;
6356;SDS011;3211;53.452;-2.264;2023-06-19T12:35:44;8.83;;;3.93;;
6356;SDS011;3211;53.452;-2.264;2023-06-19T12:38:26;5.07;;;3.07;;
6356;SDS011;3211;53.452;-2.264;2023-06-19T12:41:08;7.50;;;3.40;;
6356;SDS011;3211;53.452;-2.264;2023-06-19T12:43:50;4.73;;;2.70;;
6356;SDS011;3211;53.452;-2.264;2023-06-19T12:46:34;6.00;;;3.43;;
6356;SDS011;3211;53.452;-2.264;2023-06-19T12:49:16;5.30;;;3.20;;
6356;SDS011;3211;53.452;-2.264;2023-06-19T12:51:57;6.40;;;3.60;;
6356;SDS011;3211;53.452;-2.264;2023-06-19T12:54:39;5.43;;;2.80;;
6356;SDS011;3211;53.452;-2.264;2023-06-19T12:57:22;4.53;;;3.20;;
6356;SDS011;3211;53.452;-2.264;2023-06-19T13:00:05;10.57;;;3.60;;
6356;SDS011;3211;53.452;-2.264;2023-06-19T13:02:51;5.03;;;3.00;;
6356;SDS011;3211;53.452;-2.264;2023-06-19T13:05:32;10.83;;;2.97;;
6356;SDS011;3211;53.452;-2.264;2023-06-19T13:08:15;5.67;;;2.77;;
6356;SDS011;3211;53.452;-2.264;2023-06-19T13:10:56;4.90;;;2.53;;
6356;SDS011;3211;53.452;-2.264;2023-06-19T13:13:38;5.40;;;2.93;;
6356;SDS011;3211;53.452;-2.264;2023-06-19T13:16:20;3.30;;;3.00;;
6356;SDS011;3211;53.452;-2.264;2023-06-19T13:19:07;5.07;;;2.63;;
6356;SDS011;3211;53.452;-2.264;2023-06-19T13:21:53;3.73;;;2.63;;
6356;SDS011;3211;53.452;-2.264;2023-06-19T13:24:35;3.50;;;2.20;;
6356;SDS011;3211;53.452;-2.264;2023-06-19T13:27:17;3.57;;;2.07;;
6356;SDS011;3211;53.452;-2.264;2023-06-19T13:29:59;1.70;;;1.50;;
6356;SDS011;3211;53.452;-2.264;2023-06-19T13:32:42;3.13;;;1.83;;
6356;SDS011;3211;53.452;-2.264;2023-06-19T13:35:25;5.80;;;2.00;;
6356;SDS011;3211;53.452;-2.264;2023-06-19T13:38:07;2.60;;;1.60;;
6356;SDS011;3211;53.452;-2.264;2023-06-19T13:40:50;3.97;;;1.70;;
6356;SDS011;3211;53.452;-2.264;2023-06-19T13:43:32;3.30;;;2.23;;
6356;SDS011;3211;53.452;-2.264;2023-06-19T13:46:14;3.93;;;1.77;;
6356;SDS011;3211;53.452;-2.264;2023-06-19T13:48:56;1.93;;;1.70;;
6356;SDS011;3211;53.452;-2.264;2023-06-19T13:51:40;2.60;;;2.00;;
6356;SDS011;3211;53.452;-2.264;2023-06-19T13:54:24;2.63;;;2.00;;
6356;SDS011;3211;53.452;-2.264;2023-06-19T13:57:06;4.80;;;2.10;;
6356;SDS011;3211;53.452;-2.264;2023-06-19T13:59:48;3.27;;;1.80;;
6356;SDS011;3211;53.452;-2.264;2023-06-19T14:02:30;2.93;;;1.90;;
6356;SDS011;3211;53.452;-2.264;2023-06-19T14:05:12;3.17;;;2.10;;
6356;SDS011;3211;53.452;-2.264;2023-06-19T14:07:56;4.30;;;2.40;;
6356;SDS011;3211;53.452;-2.264;2023-06-19T14:10:38;3.53;;;2.33;;
6356;SDS011;3211;53.452;-2.264;2023-06-19T14:13:20;6.13;;;2.50;;
6356;SDS011;3211;53.452;-2.264;2023-06-19T14:16:02;3.77;;;2.10;;
6356;SDS011;3211;53.452;-2.264;2023-06-19T14:18:44;3.53;;;2.40;;
6356;SDS011;3211;53.452;-2.264;2023-06-19T14:21:26;2.30;;;1.90;;
6356;SDS011;3211;53.452;-2.264;2023-06-19T14:24:09;2.33;;;2.13;;
6356;SDS011;3211;53.452;-2.264;2023-06-19T14:26:51;5.50;;;2.30;;
6356;SDS011;3211;53.452;-2.264;2023-06-19T14:29:33;6.20;;;2.10;;
6356;SDS011;3211;53.452;-2.264;2023-06-19T14:32:15;3.73;;;2.20;;
6356;SDS011;3211;53.452;-2.264;2023-06-19T14:34:57;3.30;;;2.10;;
6356;SDS011;3211;53.452;-2.264;2023-06-19T14:37:39;3.00;;;1.77;;
6356;SDS011;3211;53.452;-2.264;2023-06-19T14:40:22;3.10;;;2.00;;
6356;SDS011;3211;53.452;-2.264;2023-06-19T14:43:04;3.20;;;2.30;;
6356;SDS011;3211;53.452;-2.264;2023-06-19T14:45:46;4.63;;;2.43;;
6356;SDS011;3211;53.452;-2.264;2023-06-19T14:48:28;7.43;;;2.50;;
6356;SDS011;3211;53.452;-2.264;2023-06-19T14:51:11;3.97;;;2.00;;
6356;SDS011;3211;53.452;-2.264;2023-06-19T14:53:53;3.80;;;2.43;;
6356;SDS011;3211;53.452;-2.264;2023-06-19T14:56:37;3.87;;;1.97;;
6356;SDS011;3211;53.452;-2.264;2023-06-19T14:59:18;2.80;;;1.97;;
6356;SDS011;3211;53.452;-2.264;2023-06-19T15:02:00;3.30;;;2.53;;
6356;SDS011;3211;53.452;-2.264;2023-06-19T15:04:43;3.10;;;2.33;;
6356;SDS011;3211;53.452;-2.264;2023-06-19T15:07:25;4.33;;;2.40;;
6356;SDS011;3211;53.452;-2.264;2023-06-19T15:10:07;2.93;;;2.20;;
6356;SDS011;3211;53.452;-2.264;2023-06-19T15:12:52;3.43;;;1.90;;
6356;SDS011;3211;53.452;-2.264;2023-06-19T15:15:34;2.20;;;2.00;;
6356;SDS011;3211;53.452;-2.264;2023-06-19T15:18:15;3.90;;;2.50;;
6356;SDS011;3211;53.452;-2.264;2023-06-19T15:20:58;3.73;;;1.97;;
6356;SDS011;3211;53.452;-2.264;2023-06-19T15:23:40;2.70;;;1.80;;
6356;SDS011;3211;53.452;-2.264;2023-06-19T15:26:22;5.00;;;2.23;;
6356;SDS011;3211;53.452;-2.264;2023-06-19T15:29:05;3.33;;;2.27;;
6356;SDS011;3211;53.452;-2.264;2023-06-19T15:31:47;5.33;;;2.03;;
6356;SDS011;3211;53.452;-2.264;2023-06-19T15:34:29;2.30;;;1.90;;
6356;SDS011;3211;53.452;-2.264;2023-06-19T15:37:11;4.17;;;2.17;;
6356;SDS011;3211;53.452;-2.264;2023-06-19T15:39:53;3.03;;;2.07;;
6356;SDS011;3211;53.452;-2.264;2023-06-19T15:42:35;2.33;;;1.93;;
6356;SDS011;3211;53.452;-2.264;2023-06-19T15:45:19;3.23;;;1.60;;
6356;SDS011;3211;53.452;-2.264;2023-06-19T15:48:01;2.40;;;1.60;;
6356;SDS011;3211;53.452;-2.264;2023-06-19T15:50:43;5.70;;;2.20;;
6356;SDS011;3211;53.452;-2.264;2023-06-19T15:53:25;4.50;;;2.00;;
6356;SDS011;3211;53.452;-2.264;2023-06-19T15:56:07;4.13;;;1.80;;
6356;SDS011;3211;53.452;-2.264;2023-06-19T15:58:49;2.50;;;2.00;;
6356;SDS011;3211;53.452;-2.264;2023-06-19T16:01:33;2.00;;;1.80;;
6356;SDS011;3211;53.452;-2.264;2023-06-19T16:04:15;3.63;;;2.00;;
6356;SDS011;3211;53.452;-2.264;2023-06-19T16:06:57;3.90;;;1.97;;
6356;SDS011;3211;53.452;-2.264;2023-06-19T16:09:39;5.17;;;2.27;;
6356;SDS011;3211;53.452;-2.264;2023-06-19T16:12:22;1.70;;;1.60;;
6356;SDS011;3211;53.452;-2.264;2023-06-19T16:15:04;2.90;;;2.03;;
6356;SDS011;3211;53.452;-2.264;2023-06-19T16:17:50;3.50;;;2.00;;
6356;SDS011;3211;53.452;-2.264;2023-06-19T16:20:34;2.93;;;1.63;;